CheckWX is a tool to help pilots better visualize weather data.  It is not intended as a substitute for an official pre-flight weather briefing.

11:00:12 UTC

KMEM TAF
Memphis International Airport
Memphis, Tennessee, USA
KMEM 270528Z 2706/2812 15008KT P6SM -SHRA OVC009 FM271300 16007KT P6SM VCSH SCT008 OVC015 FM271800 18005KT 6SM -SHRA VCTS SCT025CB BKN070 FM280000 14005KT P6SM SCT035 BKN090

May-27@
06:00 UTC

May-27 @ 06:00 UTC

May-27@
13:00 UTC

May-27 @ 13:00 UTC

TAF KMEM 270528Z 2706/2812 15008KT P6SM -SHRA OVC009

Expired

Wind
  • 150° at 8 KTS
Conditions
Light Showers, Rain
Cloud Levels
  • Overcast at 900' AGL

May-27@
13:00 UTC

May-27 @ 13:00 UTC

May-27@
18:00 UTC

May-27 @ 18:00 UTC

FM271300 16007KT P6SM VCSH SCT008 OVC015

Expired

Wind
  • 160° at 7 KTS
Conditions
Area Showers
Cloud Levels
  • Scattered at 800' AGL
  • Overcast at 1,500' AGL

May-27@
18:00 UTC

May-27 @ 18:00 UTC

May-28@
00:00 UTC

May-28 @ 00:00 UTC

FM271800 18005KT 6SM -SHRA VCTS SCT025CB BKN070

Expired

Wind
  • 180° at 5 KTS
Conditions
Light Showers, Rain, Area Thunderstorm
Cloud Levels
  • Scattered at 2,500' AGL
  • Broken at 7,000' AGL

May-28@
00:00 UTC

May-28 @ 00:00 UTC

May-28@
12:00 UTC

May-28 @ 12:00 UTC

FM280000 14005KT P6SM SCT035 BKN090

From

From Standard forecast or significant change

Wind
  • 140° at 5 KTS
Cloud Levels
  • Scattered at 3,500' AGL
  • Broken at 9,000' AGL